createdAt,value
2023-05-21T00:00:53.892Z,96766.16
2023-05-21T00:05:55.733Z,96767.31
2023-05-21T00:10:57.450Z,96760.63
2023-05-21T00:15:59.617Z,96759.50
2023-05-21T00:21:01.780Z,96738.44
2023-05-21T00:26:03.621Z,96744.66
2023-05-21T00:31:06.212Z,96739.78
2023-05-21T00:36:08.772Z,96739.13
2023-05-21T00:41:10.876Z,96739.13
2023-05-21T00:46:19.506Z,96739.47
2023-05-21T00:51:21.656Z,96733.63
2023-05-21T00:56:24.742Z,96734.25
2023-05-21T01:01:26.553Z,96732.13
2023-05-21T01:06:28.529Z,96726.78
2023-05-21T01:11:40.024Z,96715.03
2023-05-21T01:16:43.890Z,96723.00
2023-05-21T01:21:57.588Z,96722.03
2023-05-21T01:27:02.475Z,96717.47
2023-05-21T01:32:22.448Z,96716.50
2023-05-21T01:37:38.080Z,96719.28
2023-05-21T01:42:44.382Z,96723.00
2023-05-21T01:47:49.243Z,96719.75
2023-05-21T01:52:53.671Z,96719.28
2023-05-21T01:57:55.892Z,96721.22
2023-05-21T02:02:58.721Z,96730.50
2023-05-21T02:08:00.929Z,96725.59
2023-05-21T02:13:03.758Z,96722.97
2023-05-21T02:18:06.095Z,96727.53
2023-05-21T02:23:07.945Z,96722.28
2023-05-21T02:28:09.723Z,96725.00
2023-05-21T02:33:14.434Z,96725.25
2023-05-21T02:38:19.406Z,96730.56
2023-05-21T02:43:21.461Z,96724.06
2023-05-21T02:48:23.152Z,96719.16
2023-05-21T02:53:25.640Z,96720.78
2023-05-21T02:58:27.540Z,96714.25
2023-05-21T03:03:29.598Z,96712.25
2023-05-21T03:08:32.193Z,96713.66
2023-05-21T03:13:34.008Z,96716.94
2023-05-21T03:18:35.854Z,96712.91
2023-05-21T03:23:37.665Z,96704.28
2023-05-21T03:28:39.662Z,96703.94
2023-05-21T03:33:42.040Z,96707.03
2023-05-21T03:38:53.261Z,96708.28
2023-05-21T03:43:55.980Z,96705.06
2023-05-21T03:49:02.245Z,96700.38
2023-05-21T03:54:06.582Z,96714.13
2023-05-21T03:59:10.460Z,96727.81
2023-05-21T04:04:12.356Z,96722.78
2023-05-21T04:09:14.465Z,96726.66
2023-05-21T04:14:16.623Z,96726.09
2023-05-21T04:19:19.309Z,96721.59
2023-05-21T04:24:22.502Z,96722.59
2023-05-21T04:29:44.673Z,96720.19
2023-05-21T04:34:46.681Z,96719.97
2023-05-21T04:39:48.452Z,96726.50
2023-05-21T04:44:50.975Z,96726.38
2023-05-21T04:49:53.461Z,96728.00
2023-05-21T04:54:56.164Z,96730.00
2023-05-21T04:59:58.141Z,96728.56
2023-05-21T05:04:59.994Z,96732.81
2023-05-21T05:10:02.277Z,96731.09
2023-05-21T05:15:06.603Z,96735.38
2023-05-21T05:20:09.936Z,96728.41
2023-05-21T05:25:12.543Z,96729.13
2023-05-21T05:30:14.348Z,96731.47
2023-05-21T05:35:16.388Z,96735.06
2023-05-21T05:40:18.863Z,96726.75
2023-05-21T05:45:21.294Z,96720.09
2023-05-21T05:50:23.204Z,96725.81
2023-05-21T05:55:26.676Z,96723.53
2023-05-21T06:00:29.746Z,96724.63
2023-05-21T06:05:34.752Z,96728.22
2023-05-21T06:10:36.891Z,96721.84
2023-05-21T06:15:43.030Z,96724.78
2023-05-21T06:20:45.110Z,96722.66
2023-05-21T06:25:47.191Z,96722.16
2023-05-21T06:30:49.610Z,96729.75
2023-05-21T06:35:52.157Z,96733.28
2023-05-21T06:40:54.385Z,96733.06
2023-05-21T06:46:14.092Z,96733.00
2023-05-21T06:51:15.910Z,96727.56
2023-05-21T06:56:17.611Z,96728.50
2023-05-21T07:01:19.714Z,96734.81
2023-05-21T07:06:22.338Z,96734.06
2023-05-21T07:11:28.695Z,96731.38
2023-05-21T07:16:31.458Z,96736.66
2023-05-21T07:21:34.541Z,96733.63
2023-05-21T07:26:37.387Z,96732.88
2023-05-21T07:31:39.517Z,96734.09
2023-05-21T07:36:42.436Z,96723.50
2023-05-21T07:41:44.542Z,96726.44
2023-05-21T07:46:46.626Z,96728.00
2023-05-21T07:51:49.351Z,96734.69
2023-05-21T07:56:51.290Z,96737.94
2023-05-21T08:02:16.351Z,96744.44
2023-05-21T08:07:19.880Z,96738.47
2023-05-21T08:12:21.855Z,96740.25
2023-05-21T08:17:23.978Z,96734.59
2023-05-21T08:22:26.036Z,96737.38
2023-05-21T08:27:28.545Z,96729.25
2023-05-21T08:32:30.973Z,96733.44
2023-05-21T08:37:33.667Z,96740.13
2023-05-21T08:42:48.067Z,96725.75
2023-05-21T08:47:59.603Z,96732.81
2023-05-21T08:53:12.702Z,96726.81
2023-05-21T08:58:25.738Z,96730.38
2023-05-21T09:03:29.364Z,96731.13
2023-05-21T09:08:35.726Z,96730.59
2023-05-21T09:13:43.687Z,96730.06
2023-05-21T09:18:51.985Z,96731.41
2023-05-21T09:23:59.500Z,96737.53
2023-05-21T09:29:01.621Z,96738.25
2023-05-21T09:34:03.661Z,96735.50
2023-05-21T09:39:08.075Z,96739.31
2023-05-21T09:44:10.824Z,96737.72
2023-05-21T09:49:26.679Z,96740.97
2023-05-21T09:54:33.975Z,96732.06
2023-05-21T09:59:37.240Z,96731.78
2023-05-21T10:04:39.311Z,96734.34
2023-05-21T10:09:42.376Z,96732.75
2023-05-21T10:14:49.716Z,96735.91
2023-05-21T10:19:52.890Z,96729.66
2023-05-21T10:24:54.823Z,96731.06
2023-05-21T10:30:00.458Z,96730.22
2023-05-21T10:35:02.878Z,96726.78
2023-05-21T10:40:04.872Z,96726.09
2023-05-21T10:45:25.939Z,96713.72
2023-05-21T10:50:49.857Z,96711.59
2023-05-21T10:56:13.244Z,96706.28
2023-05-21T11:01:16.348Z,96701.81
2023-05-21T11:06:26.283Z,96705.09
2023-05-21T11:11:44.225Z,96701.41
2023-05-21T11:16:46.824Z,96705.69
2023-05-21T11:21:51.898Z,96694.28
2023-05-21T11:26:58.529Z,96696.56
2023-05-21T11:32:02.742Z,96690.97
2023-05-21T11:37:36.874Z,96693.28
2023-05-21T11:42:39.384Z,96687.31
2023-05-21T11:47:42.591Z,96687.16
2023-05-21T11:52:44.676Z,96681.75
2023-05-21T11:57:48.039Z,96683.41
2023-05-21T12:02:52.048Z,96688.66
2023-05-21T12:07:54.956Z,96687.72
2023-05-21T12:12:57.543Z,96693.81
2023-05-21T12:18:01.278Z,96685.28
2023-05-21T12:23:03.238Z,96690.38
2023-05-21T12:28:05.393Z,96692.09
2023-05-21T12:33:07.409Z,96691.97
2023-05-21T12:38:09.904Z,96700.78
2023-05-21T12:43:11.804Z,96695.19
2023-05-21T12:48:13.798Z,96693.72
2023-05-21T12:53:15.933Z,96696.38
2023-05-21T12:58:22.041Z,96701.94
2023-05-21T13:03:26.146Z,96703.16
2023-05-21T13:08:28.333Z,96694.28
2023-05-21T13:13:30.437Z,96682.50
2023-05-21T13:18:32.659Z,96681.56
2023-05-21T13:23:34.597Z,96665.47
2023-05-21T13:28:36.660Z,96673.63
2023-05-21T13:33:38.556Z,96673.34
2023-05-21T13:38:40.363Z,96664.09
2023-05-21T13:43:43.205Z,96669.69
2023-05-21T13:48:44.898Z,96663.31
2023-05-21T13:53:46.841Z,96656.81
2023-05-21T13:58:48.676Z,96665.41
2023-05-21T14:03:50.800Z,96656.53
2023-05-21T14:08:52.548Z,96651.84
2023-05-21T14:13:54.633Z,96644.56
2023-05-21T14:18:58.049Z,96654.25
2023-05-21T14:23:59.849Z,96656.03
2023-05-21T14:29:01.623Z,96647.19
2023-05-21T14:34:03.649Z,96650.94
2023-05-21T14:39:05.776Z,96657.91
2023-05-21T14:44:08.232Z,96653.84
2023-05-21T14:49:11.880Z,96652.25
2023-05-21T14:54:14.110Z,96660.59
2023-05-21T14:59:15.794Z,96651.13
2023-05-21T15:04:33.908Z,96648.44
2023-05-21T15:09:38.962Z,96650.91
2023-05-21T15:14:41.066Z,96643.63
2023-05-21T15:19:42.867Z,96644.38
2023-05-21T15:24:45.155Z,96657.63
2023-05-21T15:29:47.538Z,96644.41
2023-05-21T15:34:49.939Z,96635.50
2023-05-21T15:39:53.343Z,96638.50
2023-05-21T15:44:55.935Z,96644.66
2023-05-21T15:49:58.905Z,96643.44
2023-05-21T15:55:00.838Z,96635.22
2023-05-21T16:00:02.579Z,96636.34
2023-05-21T16:05:10.524Z,96635.94
2023-05-21T16:10:12.328Z,96635.44
2023-05-21T16:15:14.239Z,96637.41
2023-05-21T16:20:18.680Z,96627.78
2023-05-21T16:25:20.877Z,96619.03
2023-05-21T16:30:22.675Z,96613.59
2023-05-21T16:35:24.441Z,96616.13
2023-05-21T16:40:26.309Z,96617.16
2023-05-21T16:45:38.750Z,96605.22
2023-05-21T16:50:40.966Z,96603.47
2023-05-21T16:55:43.270Z,96610.53
2023-05-21T17:00:45.099Z,96609.09
2023-05-21T17:05:47.007Z,96614.38
2023-05-21T17:10:48.889Z,96617.69
2023-05-21T17:15:51.260Z,96620.41
2023-05-21T17:20:53.289Z,96613.50
2023-05-21T17:25:55.168Z,96611.38
2023-05-21T17:30:56.941Z,96623.56
2023-05-21T17:35:58.665Z,96622.47
2023-05-21T17:41:00.481Z,96631.94
2023-05-21T17:46:02.227Z,96627.66
2023-05-21T17:51:04.297Z,96630.56
2023-05-21T17:56:06.855Z,96634.66
2023-05-21T18:01:08.534Z,96640.78
2023-05-21T18:06:10.452Z,96632.88
2023-05-21T18:11:12.209Z,96639.00
2023-05-21T18:16:14.909Z,96646.50
2023-05-21T18:21:17.034Z,96642.13
2023-05-21T18:26:20.474Z,96646.25
2023-05-21T18:31:22.843Z,96645.31
2023-05-21T18:36:26.565Z,96643.34
2023-05-21T18:41:28.436Z,96655.00
2023-05-21T18:46:31.626Z,96651.44
2023-05-21T18:51:33.539Z,96659.22
2023-05-21T18:56:35.434Z,96670.19
2023-05-21T19:01:37.299Z,96672.34
2023-05-21T19:06:39.018Z,96678.59
2023-05-21T19:11:41.109Z,96682.25
2023-05-21T19:16:43.058Z,96690.19
2023-05-21T19:21:45.015Z,96686.28
2023-05-21T19:26:46.869Z,96688.59
2023-05-21T19:31:48.786Z,96691.16
2023-05-21T19:36:53.772Z,96696.34
2023-05-21T19:41:55.938Z,96692.69
2023-05-21T19:46:59.420Z,96701.22
2023-05-21T19:52:02.494Z,96699.38
2023-05-21T19:57:04.514Z,96702.78
2023-05-21T20:02:07.129Z,96698.84
2023-05-21T20:07:09.208Z,96703.47
2023-05-21T20:12:11.030Z,96703.47
2023-05-21T20:17:14.564Z,96715.78
2023-05-21T20:22:16.991Z,96715.22
2023-05-21T20:27:19.877Z,96712.31
2023-05-21T20:32:21.674Z,96714.88
2023-05-21T20:37:26.321Z,96713.03
2023-05-21T20:42:33.942Z,96706.97
2023-05-21T20:47:36.349Z,96709.19
2023-05-21T20:52:38.144Z,96709.41
2023-05-21T20:57:40.083Z,96704.19
2023-05-21T21:02:42.100Z,96701.66
2023-05-21T21:07:45.606Z,96699.72
2023-05-21T21:12:47.917Z,96696.59
2023-05-21T21:17:49.926Z,96693.47
2023-05-21T21:22:52.215Z,96706.91
2023-05-21T21:27:54.032Z,96709.59
2023-05-21T21:32:55.988Z,96702.72
2023-05-21T21:37:58.269Z,96704.13
2023-05-21T21:43:00.062Z,96706.44
2023-05-21T21:48:02.132Z,96703.06
2023-05-21T21:53:05.890Z,96701.31
2023-05-21T21:58:07.899Z,96707.06
2023-05-21T22:03:12.234Z,96708.06
2023-05-21T22:08:15.629Z,96706.94
2023-05-21T22:13:17.343Z,96701.47
2023-05-21T22:18:31.882Z,96706.03
2023-05-21T22:23:41.268Z,96706.44
2023-05-21T22:28:43.075Z,96705.28
2023-05-21T22:33:44.970Z,96710.50
2023-05-21T22:38:46.786Z,96708.06
2023-05-21T22:43:48.569Z,96711.50
2023-05-21T22:48:50.554Z,96713.06
2023-05-21T22:53:52.788Z,96712.09
2023-05-21T22:58:55.240Z,96705.31
2023-05-21T23:03:57.068Z,96718.16
2023-05-21T23:08:59.147Z,96696.09
2023-05-21T23:14:00.903Z,96704.72
2023-05-21T23:19:02.816Z,96700.84
2023-05-21T23:24:05.665Z,96707.53
2023-05-21T23:29:07.555Z,96711.91
2023-05-21T23:34:10.116Z,96712.00
2023-05-21T23:39:12.141Z,96708.09
2023-05-21T23:44:15.434Z,96708.22
2023-05-21T23:49:17.283Z,96711.50
2023-05-21T23:54:19.177Z,96712.25
2023-05-21T23:59:20.952Z,96711.44
